createdAt,value
2019-03-30T00:00:19.349Z,7.45
2019-03-30T00:02:50.707Z,7.48
2019-03-30T00:05:21.307Z,7.47
2019-03-30T00:07:52.016Z,7.49
2019-03-30T00:10:23.502Z,7.59
2019-03-30T00:12:53.789Z,7.65
2019-03-30T00:15:24.117Z,7.66
2019-03-30T00:17:56.543Z,7.73
2019-03-30T00:20:27.506Z,7.75
2019-03-30T00:22:57.760Z,7.81
2019-03-30T00:25:27.982Z,7.83
2019-03-30T00:27:58.298Z,7.89
2019-03-30T00:30:28.519Z,7.92
2019-03-30T00:32:58.783Z,7.98
2019-03-30T00:35:30.717Z,8.04
2019-03-30T00:38:01.305Z,8.12
2019-03-30T00:40:32.042Z,8.20
2019-03-30T00:43:02.718Z,8.22
2019-03-30T00:45:33.106Z,8.30
2019-03-30T00:48:03.709Z,8.32
2019-03-30T00:50:34.002Z,8.34
2019-03-30T00:53:04.273Z,8.36
2019-03-30T00:55:34.585Z,8.40
2019-03-30T00:58:06.460Z,8.45
2019-03-30T01:00:36.679Z,8.51
2019-03-30T01:03:08.586Z,8.50
2019-03-30T01:05:38.888Z,8.52
2019-03-30T01:08:09.580Z,8.57
2019-03-30T01:10:39.816Z,8.64
2019-03-30T01:13:10.097Z,8.62
2019-03-30T01:15:40.326Z,8.61
2019-03-30T01:18:10.632Z,8.68
2019-03-30T01:20:41.226Z,8.66
2019-03-30T01:23:11.968Z,8.69
2019-03-30T01:25:43.423Z,8.72
2019-03-30T01:28:13.667Z,8.71
2019-03-30T01:30:44.060Z,8.74
2019-03-30T01:33:14.315Z,8.73
2019-03-30T01:35:44.587Z,8.77
2019-03-30T01:38:14.810Z,8.80
2019-03-30T01:40:45.407Z,8.77
2019-03-30T01:43:16.060Z,8.79
2019-03-30T01:45:46.772Z,8.80
2019-03-30T01:48:17.090Z,8.83
2019-03-30T01:50:47.801Z,8.84
2019-03-30T01:53:18.487Z,8.85
2019-03-30T01:55:49.217Z,8.87
2019-03-30T01:58:19.533Z,8.89
2019-03-30T02:00:51.296Z,8.91
2019-03-30T02:03:21.555Z,8.89
2019-03-30T02:05:52.131Z,8.89
2019-03-30T02:08:22.458Z,8.91
2019-03-30T02:10:52.670Z,8.93
2019-03-30T02:13:22.919Z,8.90
2019-03-30T02:15:53.139Z,8.92
2019-03-30T02:18:25.039Z,8.89
2019-03-30T02:20:55.654Z,8.91
2019-03-30T02:23:26.251Z,8.89
2019-03-30T02:25:56.987Z,8.90
2019-03-30T02:28:27.383Z,8.92
2019-03-30T02:30:57.618Z,8.91
2019-03-30T02:33:27.867Z,8.90
2019-03-30T02:35:58.441Z,8.92
2019-03-30T02:38:28.733Z,8.90
2019-03-30T02:40:58.980Z,8.89
2019-03-30T02:43:29.562Z,8.88
2019-03-30T02:46:00.202Z,8.83
2019-03-30T02:48:30.859Z,8.82
2019-03-30T02:51:01.253Z,8.85
2019-03-30T02:53:31.480Z,8.86
2019-03-30T02:56:01.708Z,8.83
2019-03-30T02:58:31.986Z,8.82
2019-03-30T03:01:02.376Z,8.80
2019-03-30T03:03:33.029Z,8.74
2019-03-30T03:06:03.416Z,8.62
2019-03-30T03:08:33.985Z,8.50
2019-03-30T03:11:04.303Z,8.48
2019-03-30T03:13:34.576Z,8.45
2019-03-30T03:16:04.832Z,8.48
2019-03-30T03:18:35.081Z,8.48
2019-03-30T03:21:07.952Z,8.42
2019-03-30T03:23:37.309Z,8.44
2019-03-30T03:26:07.567Z,8.42
2019-03-30T03:28:37.784Z,8.46
2019-03-30T03:31:08.018Z,8.45
2019-03-30T03:33:38.269Z,8.51
2019-03-30T03:36:08.485Z,8.51
2019-03-30T03:38:38.721Z,8.51
2019-03-30T03:41:09.378Z,8.50
2019-03-30T03:43:40.022Z,8.50
2019-03-30T03:46:10.705Z,8.53
2019-03-30T03:48:41.002Z,8.52
2019-03-30T03:51:25.877Z,8.54
2019-03-30T03:53:46.497Z,8.55
2019-03-30T03:56:17.637Z,8.56
2019-03-30T03:58:48.448Z,8.53
2019-03-30T04:01:21.809Z,8.58
2019-03-30T04:03:55.200Z,8.57
2019-03-30T04:06:27.081Z,8.55
2019-03-30T04:08:59.401Z,8.56
2019-03-30T04:11:31.562Z,8.58
2019-03-30T04:14:03.917Z,8.55
2019-03-30T04:16:34.613Z,8.57
2019-03-30T04:19:04.907Z,8.59
2019-03-30T04:21:43.551Z,8.64
2019-03-30T04:24:07.069Z,8.60
2019-03-30T04:26:37.310Z,8.58
2019-03-30T04:29:07.522Z,8.61
2019-03-30T04:31:38.124Z,8.62
2019-03-30T04:34:08.407Z,8.63
2019-03-30T04:36:38.654Z,8.64
2019-03-30T04:39:09.235Z,8.69
2019-03-30T04:41:39.963Z,8.72
2019-03-30T04:44:10.312Z,8.77
2019-03-30T04:46:40.918Z,8.82
2019-03-30T04:49:11.215Z,8.82
2019-03-30T04:51:41.798Z,8.84
2019-03-30T04:54:12.431Z,8.87
2019-03-30T04:56:43.093Z,8.92
2019-03-30T04:59:13.750Z,8.99
2019-03-30T05:01:44.152Z,9.01
2019-03-30T05:04:15.936Z,9.04
2019-03-30T05:06:46.150Z,9.07
2019-03-30T05:09:16.725Z,9.13
2019-03-30T05:11:47.398Z,9.18
2019-03-30T05:14:17.844Z,9.19
2019-03-30T05:16:48.081Z,9.21
2019-03-30T05:19:19.818Z,9.20
2019-03-30T05:21:50.068Z,9.20
2019-03-30T05:24:20.287Z,9.25
2019-03-30T05:26:50.619Z,9.33
2019-03-30T05:29:21.466Z,9.37
2019-03-30T05:31:52.069Z,9.39
2019-03-30T05:34:22.701Z,9.41
2019-03-30T05:36:53.121Z,9.40
2019-03-30T05:39:25.348Z,9.43
2019-03-30T05:41:56.032Z,9.50
2019-03-30T05:44:26.347Z,9.51
2019-03-30T05:46:56.598Z,9.52
2019-03-30T05:49:26.870Z,9.57
2019-03-30T05:51:57.144Z,9.64
2019-03-30T05:54:27.409Z,9.72
2019-03-30T05:56:57.980Z,9.82
2019-03-30T05:59:29.400Z,9.87
2019-03-30T06:02:01.675Z,9.84
2019-03-30T06:04:31.982Z,9.88
2019-03-30T06:07:02.715Z,9.90
2019-03-30T06:09:32.956Z,10.00
2019-03-30T06:12:04.792Z,10.15
2019-03-30T06:14:35.021Z,10.15
2019-03-30T06:17:06.234Z,10.26
2019-03-30T06:19:36.487Z,10.29
2019-03-30T06:22:06.746Z,10.44
2019-03-30T06:24:36.991Z,10.52
2019-03-30T06:27:07.213Z,10.64
2019-03-30T06:29:37.508Z,10.71
2019-03-30T06:32:10.794Z,10.69
2019-03-30T06:34:43.936Z,10.74
2019-03-30T06:37:14.886Z,10.65
2019-03-30T06:39:45.628Z,10.66
2019-03-30T06:42:15.988Z,10.63
2019-03-30T06:44:46.368Z,10.69
2019-03-30T06:47:16.617Z,10.76
2019-03-30T06:49:47.324Z,10.88
2019-03-30T06:52:19.386Z,10.90
2019-03-30T06:54:49.975Z,10.98
2019-03-30T06:57:20.628Z,10.99
2019-03-30T06:59:50.956Z,11.05
2019-03-30T07:02:23.447Z,11.22
2019-03-30T07:04:53.776Z,11.32
2019-03-30T07:07:25.716Z,11.39
2019-03-30T07:09:58.210Z,11.44
2019-03-30T07:12:33.035Z,11.42
2019-03-30T07:15:03.784Z,11.43
2019-03-30T07:17:37.505Z,11.41
2019-03-30T07:20:10.870Z,11.47
2019-03-30T07:22:41.483Z,11.49
2019-03-30T07:25:11.792Z,11.56
2019-03-30T07:27:42.421Z,11.58
2019-03-30T07:30:12.868Z,11.69
2019-03-30T07:32:43.180Z,11.84
2019-03-30T07:35:13.874Z,12.04
2019-03-30T07:37:45.912Z,12.20
2019-03-30T07:40:18.176Z,12.33
2019-03-30T07:42:48.478Z,12.44
2019-03-30T07:45:18.802Z,12.55
2019-03-30T07:47:49.599Z,12.61
2019-03-30T07:50:20.748Z,12.62
2019-03-30T07:52:51.136Z,12.70
2019-03-30T07:55:23.521Z,12.85
2019-03-30T07:57:53.869Z,12.90
2019-03-30T08:00:30.607Z,13.04
2019-03-30T08:03:00.325Z,13.15
2019-03-30T08:05:30.897Z,13.07
2019-03-30T08:08:01.572Z,13.17
2019-03-30T08:10:32.220Z,13.31
2019-03-30T08:13:07.387Z,13.39
2019-03-30T08:15:38.214Z,13.46
2019-03-30T08:18:09.710Z,13.48
2019-03-30T08:20:39.996Z,13.47
2019-03-30T08:23:11.660Z,13.60
2019-03-30T08:25:42.354Z,13.73
2019-03-30T08:28:15.125Z,13.75
2019-03-30T08:30:45.463Z,13.97
2019-03-30T08:33:17.338Z,14.08
2019-03-30T08:35:47.617Z,14.20
2019-03-30T08:38:18.290Z,14.41
2019-03-30T08:40:48.964Z,14.50
2019-03-30T08:43:19.326Z,14.48
2019-03-30T08:45:49.983Z,14.62
2019-03-30T08:48:20.302Z,14.65
2019-03-30T08:50:50.639Z,14.93
2019-03-30T08:53:23.387Z,15.10
2019-03-30T08:55:53.786Z,15.24
2019-03-30T08:58:24.405Z,15.26
2019-03-30T09:00:54.769Z,15.39
2019-03-30T09:03:25.003Z,15.42
2019-03-30T09:05:55.279Z,15.50
2019-03-30T09:08:25.568Z,15.75
2019-03-30T09:10:56.239Z,16.08
2019-03-30T09:13:26.662Z,16.52
2019-03-30T09:15:57.301Z,16.81
2019-03-30T09:18:27.702Z,17.21
2019-03-30T09:20:57.963Z,17.39
2019-03-30T09:23:28.201Z,18.18
2019-03-30T09:25:58.820Z,18.50
2019-03-30T09:28:29.533Z,18.35
2019-03-30T09:31:04.384Z,18.60
2019-03-30T09:33:34.676Z,18.95
2019-03-30T09:36:04.945Z,19.54
2019-03-30T09:38:35.161Z,19.89
2019-03-30T09:41:05.612Z,20.58
2019-03-30T09:43:37.733Z,20.21
2019-03-30T09:46:08.578Z,20.15
2019-03-30T09:48:39.144Z,20.08
2019-03-30T09:51:10.258Z,19.84
2019-03-30T09:53:42.659Z,19.62
2019-03-30T09:56:12.943Z,19.45
2019-03-30T09:58:43.179Z,19.29
2019-03-30T10:01:13.434Z,19.30
2019-03-30T10:03:44.769Z,19.14
2019-03-30T10:06:15.596Z,18.99
2019-03-30T10:08:46.986Z,19.04
2019-03-30T10:11:17.246Z,19.77
2019-03-30T10:13:49.356Z,19.50
2019-03-30T10:16:22.681Z,19.77
2019-03-30T10:18:53.247Z,19.66
2019-03-30T10:21:24.057Z,19.63
2019-03-30T10:23:54.877Z,19.37
2019-03-30T10:26:25.519Z,19.10
2019-03-30T10:29:01.342Z,18.67
2019-03-30T10:31:33.271Z,17.79
2019-03-30T10:34:07.168Z,17.60
2019-03-30T10:36:39.238Z,17.68
2019-03-30T10:39:15.960Z,17.76
2019-03-30T10:41:46.380Z,17.65
2019-03-30T10:44:16.990Z,17.69
2019-03-30T10:46:47.276Z,17.90
2019-03-30T10:49:17.901Z,18.13
2019-03-30T10:51:48.376Z,18.38
2019-03-30T10:54:19.054Z,18.67
2019-03-30T10:56:49.767Z,19.02
2019-03-30T10:59:20.434Z,19.04
2019-03-30T11:01:51.076Z,18.86
2019-03-30T11:04:21.389Z,18.62
2019-03-30T11:06:51.966Z,18.44
2019-03-30T11:09:22.698Z,18.31
2019-03-30T11:11:53.342Z,18.06
2019-03-30T11:14:23.740Z,17.91
2019-03-30T11:16:54.372Z,17.67
2019-03-30T11:19:24.633Z,17.62
2019-03-30T11:21:54.892Z,17.45
2019-03-30T11:24:25.499Z,17.21
2019-03-30T11:26:56.169Z,17.03
2019-03-30T11:29:26.914Z,16.88
2019-03-30T11:31:57.570Z,16.71
2019-03-30T11:34:28.794Z,16.55
2019-03-30T11:36:59.029Z,16.50
2019-03-30T11:39:29.631Z,16.41
2019-03-30T11:42:00.373Z,16.33
2019-03-30T11:44:31.196Z,16.24
2019-03-30T11:47:04.717Z,16.22
2019-03-30T11:49:35.437Z,16.27
2019-03-30T11:52:06.094Z,16.21
2019-03-30T11:54:36.796Z,16.06
2019-03-30T11:57:07.606Z,15.92
2019-03-30T11:59:38.338Z,15.86
2019-03-30T12:02:10.072Z,15.81
2019-03-30T12:04:40.404Z,15.76
2019-03-30T12:07:11.457Z,15.72
2019-03-30T12:09:41.684Z,15.73
2019-03-30T12:12:12.275Z,15.72
2019-03-30T12:14:43.758Z,15.68
2019-03-30T12:17:14.091Z,15.63
2019-03-30T12:19:44.333Z,15.57
2019-03-30T12:22:14.603Z,15.57
2019-03-30T12:24:45.982Z,15.60
2019-03-30T12:27:16.386Z,15.58
2019-03-30T12:29:47.388Z,15.57
2019-03-30T12:32:18.028Z,15.60
2019-03-30T12:34:49.039Z,15.66
2019-03-30T12:37:19.348Z,15.66
2019-03-30T12:39:49.600Z,15.63
2019-03-30T12:42:19.905Z,15.70
2019-03-30T12:44:50.160Z,15.83
2019-03-30T12:47:20.819Z,15.91
2019-03-30T12:49:51.188Z,15.92
2019-03-30T12:52:21.731Z,15.95
2019-03-30T12:54:52.696Z,15.96
2019-03-30T12:57:23.327Z,15.92
2019-03-30T12:59:53.999Z,15.78
2019-03-30T13:02:24.409Z,15.71
2019-03-30T13:04:54.991Z,15.70
2019-03-30T13:07:25.387Z,15.73
2019-03-30T13:10:03.187Z,15.84
2019-03-30T13:12:29.612Z,15.79
2019-03-30T13:14:59.871Z,15.74
2019-03-30T13:17:30.132Z,15.79
2019-03-30T13:20:00.746Z,15.94
2019-03-30T13:22:31.391Z,15.89
2019-03-30T13:25:02.067Z,15.90
2019-03-30T13:27:32.936Z,15.96
2019-03-30T13:30:04.128Z,16.08
2019-03-30T13:32:34.431Z,16.09
2019-03-30T13:35:07.560Z,16.09
2019-03-30T13:37:37.827Z,16.18
2019-03-30T13:40:08.992Z,16.19
2019-03-30T13:42:39.326Z,16.12
2019-03-30T13:45:10.542Z,16.17
2019-03-30T13:47:43.127Z,16.16
2019-03-30T13:50:14.289Z,16.13
2019-03-30T13:52:44.659Z,16.06
2019-03-30T13:55:15.004Z,16.00
2019-03-30T13:57:45.457Z,16.02
2019-03-30T14:00:16.119Z,16.03
2019-03-30T14:02:46.511Z,16.06
2019-03-30T14:05:16.746Z,16.05
2019-03-30T14:07:47.335Z,16.05
2019-03-30T14:10:17.867Z,16.08
2019-03-30T14:12:48.096Z,16.11
2019-03-30T14:15:19.781Z,16.12
2019-03-30T14:17:52.141Z,16.14
2019-03-30T14:20:23.899Z,16.14
2019-03-30T14:22:54.116Z,16.09
2019-03-30T14:25:24.724Z,16.11
2019-03-30T14:27:55.380Z,16.10
2019-03-30T14:30:25.777Z,16.06
2019-03-30T14:32:56.351Z,16.00
2019-03-30T14:35:28.039Z,15.89
2019-03-30T14:37:58.251Z,15.79
2019-03-30T14:40:28.833Z,15.73
2019-03-30T14:42:59.597Z,15.69
2019-03-30T14:45:29.897Z,15.64
2019-03-30T14:48:00.590Z,15.57
2019-03-30T14:50:31.201Z,15.54
2019-03-30T14:53:04.602Z,15.54
2019-03-30T14:55:35.093Z,15.53
2019-03-30T14:58:05.440Z,15.46
2019-03-30T15:00:37.118Z,15.41
2019-03-30T15:03:07.718Z,15.41
2019-03-30T15:05:37.817Z,15.40
2019-03-30T15:08:08.091Z,15.40
2019-03-30T15:10:38.682Z,15.41
2019-03-30T15:13:09.014Z,15.34
2019-03-30T15:15:39.305Z,15.29
2019-03-30T15:18:09.536Z,15.24
2019-03-30T15:20:40.147Z,15.15
2019-03-30T15:23:10.508Z,15.06
2019-03-30T15:25:40.756Z,14.98
2019-03-30T15:28:12.632Z,14.92
2019-03-30T15:30:42.886Z,14.85
2019-03-30T15:33:13.132Z,14.77
2019-03-30T15:35:43.741Z,14.70
2019-03-30T15:38:15.624Z,14.59
2019-03-30T15:40:46.341Z,14.53
2019-03-30T15:43:16.661Z,14.45
2019-03-30T15:45:46.990Z,14.38
2019-03-30T15:48:17.317Z,14.32
2019-03-30T15:50:48.002Z,14.26
2019-03-30T15:53:18.388Z,14.20
2019-03-30T15:55:48.713Z,14.15
2019-03-30T15:58:18.946Z,14.11
2019-03-30T16:00:49.555Z,14.05
2019-03-30T16:03:19.862Z,13.98
2019-03-30T16:05:50.480Z,13.89
2019-03-30T16:08:20.817Z,13.79
2019-03-30T16:10:52.385Z,13.71
2019-03-30T16:13:23.147Z,13.61
2019-03-30T16:15:53.376Z,13.53
2019-03-30T16:18:23.656Z,13.42
2019-03-30T16:20:54.036Z,13.33
2019-03-30T16:23:24.287Z,13.24
2019-03-30T16:25:54.505Z,13.16
2019-03-30T16:28:25.154Z,13.07
2019-03-30T16:30:55.554Z,12.95
2019-03-30T16:33:25.815Z,12.82
2019-03-30T16:35:56.066Z,12.71
2019-03-30T16:38:26.325Z,12.60
2019-03-30T16:40:58.214Z,12.46
2019-03-30T16:43:29.927Z,12.36
2019-03-30T16:46:00.608Z,12.21
2019-03-30T16:48:32.541Z,12.06
2019-03-30T16:51:03.254Z,11.93
2019-03-30T16:53:38.324Z,11.80
2019-03-30T16:56:08.611Z,11.69
2019-03-30T16:58:39.166Z,11.56
2019-03-30T17:01:09.929Z,11.41
2019-03-30T17:03:40.258Z,11.25
2019-03-30T17:06:10.608Z,11.13
2019-03-30T17:08:40.829Z,10.99
2019-03-30T17:11:11.076Z,10.88
2019-03-30T17:13:41.415Z,10.76
2019-03-30T17:16:11.642Z,10.65
2019-03-30T17:18:41.899Z,10.52
2019-03-30T17:21:12.123Z,10.42
2019-03-30T17:23:42.406Z,10.28
2019-03-30T17:26:13.026Z,10.20
2019-03-30T17:28:43.683Z,10.12
2019-03-30T17:31:14.402Z,10.06
2019-03-30T17:33:44.788Z,9.96
2019-03-30T17:36:15.106Z,9.85
2019-03-30T17:38:45.687Z,9.74
2019-03-30T17:41:16.037Z,9.62
2019-03-30T17:43:47.430Z,9.50
2019-03-30T17:46:17.731Z,9.40
2019-03-30T17:48:49.182Z,9.28
2019-03-30T17:51:19.388Z,9.16
2019-03-30T17:53:49.653Z,9.06
2019-03-30T17:56:19.855Z,8.94
2019-03-30T17:58:51.426Z,8.85
2019-03-30T18:01:22.104Z,8.75
2019-03-30T18:03:53.464Z,8.65
2019-03-30T18:06:23.851Z,8.53
2019-03-30T18:08:53.998Z,8.45
2019-03-30T18:11:24.236Z,8.33
2019-03-30T18:13:54.865Z,8.23
2019-03-30T18:16:25.536Z,8.15
2019-03-30T18:18:55.831Z,8.05
2019-03-30T18:21:26.454Z,7.96
2019-03-30T18:23:56.751Z,7.89
2019-03-30T18:26:27.698Z,7.84
2019-03-30T18:28:58.019Z,7.77
2019-03-30T18:31:28.283Z,7.73
2019-03-30T18:33:58.524Z,7.65
2019-03-30T18:36:31.301Z,7.61
2019-03-30T18:39:09.886Z,7.58
2019-03-30T18:41:36.691Z,7.51
2019-03-30T18:44:07.449Z,7.46
2019-03-30T18:46:37.797Z,7.44
2019-03-30T18:49:08.403Z,7.39
2019-03-30T18:51:40.991Z,7.40
2019-03-30T18:54:12.145Z,7.33
2019-03-30T18:56:45.206Z,7.27
2019-03-30T18:59:15.457Z,7.21
2019-03-30T19:01:47.688Z,7.17
2019-03-30T19:04:18.004Z,7.11
2019-03-30T19:06:48.529Z,7.08
2019-03-30T19:09:18.817Z,7.00
2019-03-30T19:11:49.140Z,6.94
2019-03-30T19:14:19.718Z,6.91
2019-03-30T19:16:51.169Z,6.88
2019-03-30T19:19:21.767Z,6.85
2019-03-30T19:21:53.160Z,6.78
2019-03-30T19:24:23.420Z,6.70
2019-03-30T19:26:54.086Z,6.64
2019-03-30T19:29:24.726Z,6.56
2019-03-30T19:31:55.362Z,6.53
2019-03-30T19:34:25.668Z,6.45
2019-03-30T19:36:56.336Z,6.37
2019-03-30T19:39:26.997Z,6.26
2019-03-30T19:41:57.296Z,6.14
2019-03-30T19:44:27.558Z,6.14
2019-03-30T19:46:59.719Z,6.08
2019-03-30T19:49:31.107Z,6.03
2019-03-30T19:52:01.331Z,5.95
2019-03-30T19:54:31.790Z,5.88
2019-03-30T19:57:02.311Z,5.80
2019-03-30T19:59:35.023Z,5.72
2019-03-30T20:02:05.609Z,5.64
2019-03-30T20:04:36.112Z,5.61
2019-03-30T20:07:06.379Z,5.55
2019-03-30T20:09:38.126Z,5.53
2019-03-30T20:12:08.818Z,5.49
2019-03-30T20:14:40.409Z,5.47
2019-03-30T20:17:10.680Z,5.40
2019-03-30T20:19:41.290Z,5.40
2019-03-30T20:22:11.950Z,5.37
2019-03-30T20:24:42.255Z,5.31
2019-03-30T20:27:12.671Z,5.30
2019-03-30T20:29:43.259Z,5.32
2019-03-30T20:32:13.960Z,5.28
2019-03-30T20:34:44.300Z,5.21
2019-03-30T20:37:14.527Z,5.15
2019-03-30T20:39:45.157Z,5.09
2019-03-30T20:42:16.884Z,5.11
2019-03-30T20:44:47.535Z,5.04
2019-03-30T20:47:17.860Z,5.03
2019-03-30T20:49:48.082Z,4.99
2019-03-30T20:52:19.517Z,4.92
2019-03-30T20:54:51.013Z,4.90
2019-03-30T20:57:21.809Z,4.84
2019-03-30T20:59:52.449Z,4.81
2019-03-30T21:02:24.212Z,4.74
2019-03-30T21:04:54.474Z,4.69
2019-03-30T21:07:26.160Z,4.75
2019-03-30T21:09:57.003Z,4.76
2019-03-30T21:12:27.321Z,4.73
2019-03-30T21:14:57.944Z,4.71
2019-03-30T21:17:28.327Z,4.67
2019-03-30T21:19:58.651Z,4.65
2019-03-30T21:22:28.848Z,4.62
2019-03-30T21:24:59.074Z,4.56
2019-03-30T21:27:29.339Z,4.48
2019-03-30T21:30:00.480Z,4.45
2019-03-30T21:32:31.469Z,4.39
2019-03-30T21:35:01.787Z,4.34
2019-03-30T21:37:32.450Z,4.31
2019-03-30T21:40:02.829Z,4.29
2019-03-30T21:42:33.412Z,4.23
2019-03-30T21:45:05.601Z,4.19
2019-03-30T21:47:35.931Z,4.16
2019-03-30T21:50:07.702Z,4.10
2019-03-30T21:52:39.057Z,4.09
2019-03-30T21:55:09.571Z,4.06
2019-03-30T21:57:39.792Z,4.03
2019-03-30T22:00:11.570Z,4.03
2019-03-30T22:02:42.797Z,4.05
2019-03-30T22:05:14.758Z,4.07
2019-03-30T22:07:45.128Z,4.04
2019-03-30T22:10:18.423Z,4.04
2019-03-30T22:12:48.952Z,4.05
2019-03-30T22:15:23.894Z,4.03
2019-03-30T22:17:54.744Z,3.97
2019-03-30T22:20:26.679Z,3.90
2019-03-30T22:22:56.957Z,3.84
2019-03-30T22:25:27.214Z,3.79
2019-03-30T22:27:57.494Z,3.73
2019-03-30T22:30:28.081Z,3.70
2019-03-30T22:32:58.388Z,3.66
2019-03-30T22:35:28.652Z,3.65
2019-03-30T22:37:59.239Z,3.65
2019-03-30T22:40:29.593Z,3.64
2019-03-30T22:43:02.859Z,3.63
2019-03-30T22:45:33.193Z,3.59
2019-03-30T22:48:04.690Z,3.55
2019-03-30T22:50:35.027Z,3.52
2019-03-30T22:53:05.254Z,3.45
2019-03-30T22:55:35.689Z,3.41
2019-03-30T22:58:05.939Z,3.37
2019-03-30T23:00:39.984Z,3.35
2019-03-30T23:03:12.078Z,3.34
2019-03-30T23:05:43.576Z,3.31
2019-03-30T23:08:13.963Z,3.29
2019-03-30T23:10:44.183Z,3.25
2019-03-30T23:13:16.003Z,3.23
2019-03-30T23:15:46.455Z,3.20
2019-03-30T23:18:17.053Z,3.16
2019-03-30T23:20:47.378Z,3.11
2019-03-30T23:23:17.617Z,3.08
2019-03-30T23:25:47.861Z,3.09
2019-03-30T23:28:18.137Z,3.07
2019-03-30T23:30:54.515Z,3.03
2019-03-30T23:33:20.854Z,3.02
2019-03-30T23:35:51.122Z,2.98
2019-03-30T23:38:21.323Z,2.94
2019-03-30T23:40:51.607Z,2.93
2019-03-30T23:43:21.864Z,2.94
2019-03-30T23:45:52.515Z,2.93
2019-03-30T23:48:23.172Z,2.93
2019-03-30T23:50:54.077Z,2.93
2019-03-30T23:53:24.778Z,2.92
2019-03-30T23:55:55.521Z,2.93
2019-03-30T23:58:25.820Z,2.94
